Accueil
METAR-TAF:

METAR-TAF

Aéroports :

Londres-Gatwick, Angleterre

Aéroport de Londres-Gatwick

latitude: 51-09N, longitude: 000-11W, altitude: 62 m

Observation

Le bulletin a été fait il y a 27 minutes, à 18:50 UTC
Vent 9 kt de nord-ouest
Température 1°C
Humidité 86%
Pression 991 hPa
Visibilité 10 km ou plus
Quelques nuages à une hauteur de 100 ft

METAR: EGKK 111850Z 32009KT 9999 FEW001 01/M01 Q0991

Heure: 19:17 (19:17 UTC)

Prévision

Le bulletin a été fait il y a 2 heures et 9 minutes, à 17:08 UTC
Prévision valable du 11 à 18 UTC au 12 à 24 UTC
Vent 10 kt de nord/nord-ouest
Visibilité 10 km ou plus
pas de nuages en-dessous de 1500 mètres et pas de cumulonimbus.
Evoluant progressivement
du 12 à 06 UTC au 12 à 09 UTC
Vent 5 kt de direction variable
Evoluant progressivement
du 12 à 18 UTC au 12 à 21 UTC
Nuages fragmentés à une hauteur de 3000 ft

TAF: EGKK 111708Z 1118/1224 34010KT CAVOK BECMG 1206/1209 VRB05KT BECMG 1218/1221 BKN030

Observations et prévisions météorologiques de plus de 4000 aéroports (messages METAR et TAF).

Les stations disponibles sont représentées par des disques jaunes et rouges sur la carte.

Passer la souris dessus pour voir le nom de la station.

Cliquer dessus pour voir les observations et prévisions météorologiques.

Pour changer de carte: cliquez sur les boutons verts avec une croix noire pour zoomer, sur le bouton vert avec un tiret pour effectuer un zoom arrière, ou sur les flèches vertes pour les cartes adjacentes.


METAR-TAF: